createdAt,value
2019-04-19T00:00:03.439Z,6.72
2019-04-19T00:05:03.537Z,0
2019-04-19T00:10:06.955Z,0
2019-04-19T00:15:03.510Z,10.60
2019-04-19T00:20:25.546Z,7.50
2019-04-19T00:25:02.823Z,5.92
2019-04-19T00:30:13.910Z,0
2019-04-19T00:35:03.410Z,8.65
2019-04-19T00:40:21.545Z,0
2019-04-19T00:45:19.040Z,7.22
2019-04-19T00:50:15.726Z,7.42
2019-04-19T00:55:10.324Z,0
2019-04-19T01:00:03.958Z,7.75
2019-04-19T01:05:06.913Z,10.63
2019-04-19T01:10:21.458Z,8.58
2019-04-19T01:15:09.370Z,8.08
2019-04-19T01:20:06.881Z,6.40
2019-04-19T01:25:08.833Z,6.75
2019-04-19T01:30:04.467Z,7.20
2019-04-19T01:35:09.264Z,6.45
2019-04-19T01:40:18.529Z,6.60
2019-04-19T01:45:13.441Z,6.62
2019-04-19T01:50:12.335Z,7.83
2019-04-19T01:55:12.325Z,7.40
2019-04-19T02:00:05.085Z,8.35
2019-04-19T02:05:09.198Z,8.30
2019-04-19T02:10:13.344Z,6.40
2019-04-19T02:15:09.613Z,6.37
2019-04-19T02:20:05.874Z,6.53
2019-04-19T02:25:04.023Z,9.38
2019-04-19T02:30:11.248Z,7.60
2019-04-19T02:35:22.057Z,6.30
2019-04-19T02:40:45.021Z,8.28
2019-04-19T02:50:57.953Z,8.53
2019-04-19T02:55:13.768Z,16.42
2019-04-19T03:00:37.694Z,13.18
2019-04-19T03:05:29.933Z,8.03
2019-04-19T03:10:04.993Z,6.72
2019-04-19T03:15:14.077Z,6.80
2019-04-19T03:20:16.605Z,7.00
2019-04-19T03:25:18.406Z,6.92
2019-04-19T03:30:16.730Z,7.83
2019-04-19T03:35:15.330Z,6.58
2019-04-19T03:40:26.052Z,9.40
2019-04-19T03:45:17.529Z,7.08
2019-04-19T03:50:20.370Z,8.25
2019-04-19T03:55:20.286Z,7.28
2019-04-19T04:00:03.003Z,7.30
2019-04-19T04:05:07.560Z,9.45
2019-04-19T04:10:04.150Z,10.68
2019-04-19T04:15:16.720Z,6.35
2019-04-19T04:20:03.204Z,8.35
2019-04-19T04:25:11.732Z,9.08
2019-04-19T04:30:15.335Z,9.30
2019-04-19T04:35:21.518Z,6.87
2019-04-19T04:40:02.730Z,7.55
2019-04-19T04:50:27.786Z,6.97
2019-04-19T04:55:03.293Z,6.22
2019-04-19T05:00:03.420Z,8.20
2019-04-19T05:05:19.826Z,8.75
2019-04-19T05:10:23.144Z,8.60
2019-04-19T05:15:22.545Z,11.18
2019-04-19T05:30:02.949Z,6.75
2019-04-19T05:35:16.726Z,7.20
2019-04-19T05:40:21.606Z,6.95
2019-04-19T05:45:31.532Z,9.83
2019-04-19T05:50:25.568Z,8.95
2019-04-19T05:55:02.499Z,10.72
2019-04-19T06:00:18.244Z,7.95
2019-04-19T06:05:15.484Z,7.40
2019-04-19T06:10:06.544Z,7.37
2019-04-19T06:15:24.844Z,10.78
2019-04-19T06:20:20.647Z,9.30
2019-04-19T06:25:24.713Z,8.68
2019-04-19T06:30:16.114Z,0
2019-04-19T06:35:16.665Z,11.80
2019-04-19T06:40:10.491Z,10.65
2019-04-19T06:45:17.695Z,11.12
2019-04-19T06:50:03.066Z,7.25
2019-04-19T06:55:09.817Z,9.18
2019-04-19T07:00:13.172Z,11.85
2019-04-19T07:05:18.735Z,7.75
2019-04-19T07:10:33.801Z,7.80
2019-04-19T07:15:30.172Z,9.93
2019-04-19T07:20:17.601Z,8.75
2019-04-19T07:25:18.400Z,14.05
2019-04-19T07:30:05.111Z,8.13
2019-04-19T07:35:16.320Z,7.97
2019-04-19T07:40:23.629Z,7.15
2019-04-19T07:45:08.349Z,9.00
2019-04-19T07:50:12.207Z,9.63
2019-04-19T07:55:07.614Z,8.13
2019-04-19T08:05:36.562Z,11.88
2019-04-19T08:10:28.195Z,9.13
2019-04-19T08:30:10.225Z,11.45
2019-04-19T08:35:07.461Z,9.45
2019-04-19T08:40:22.124Z,7.60
2019-04-19T08:45:09.257Z,15.80
2019-04-19T08:50:07.129Z,11.75
2019-04-19T09:05:18.717Z,11.18
2019-04-19T09:10:27.098Z,13.03
2019-04-19T09:15:21.563Z,11.15
2019-04-19T09:20:20.367Z,6.97
2019-04-19T09:25:07.516Z,9.60
2019-04-19T09:30:22.292Z,5.78
2019-04-19T09:35:06.505Z,7.33
2019-04-19T09:40:08.302Z,4.47
2019-04-19T09:45:04.373Z,7.22
2019-04-19T09:50:13.286Z,7.20
2019-04-19T09:55:30.194Z,7.22
2019-04-19T10:00:11.109Z,6.70
2019-04-19T10:05:03.119Z,7.53
2019-04-19T10:10:07.087Z,7.08
2019-04-19T10:15:04.124Z,9.10
2019-04-19T10:20:02.853Z,7.08
2019-04-19T10:25:03.365Z,10.53
2019-04-19T10:30:04.042Z,6.97
2019-04-19T10:35:02.558Z,6.08
2019-04-19T10:40:03.920Z,6.92
2019-04-19T10:45:02.641Z,7.50
2019-04-19T10:50:16.899Z,5.62
2019-04-19T10:55:04.242Z,5.10
2019-04-19T11:00:03.316Z,4.42
2019-04-19T11:05:03.028Z,5.03
2019-04-19T11:10:02.444Z,2.92
2019-04-19T11:15:02.817Z,3.52
2019-04-19T11:20:16.678Z,3.08
2019-04-19T11:25:03.878Z,3.47
2019-04-19T11:30:03.407Z,3.75
2019-04-19T11:35:03.280Z,6.20
2019-04-19T11:40:03.480Z,4.62
2019-04-19T11:45:03.775Z,3.72
2019-04-19T11:50:03.867Z,5.35
2019-04-19T11:55:04.595Z,3.83
2019-04-19T12:00:04.092Z,4.37
2019-04-19T12:05:13.991Z,4.78
2019-04-19T12:10:03.123Z,5.20
2019-04-19T12:15:03.961Z,2.70
2019-04-19T12:20:04.445Z,4.20
2019-04-19T12:25:03.752Z,2.90
2019-04-19T12:30:03.201Z,2.87
2019-04-19T12:35:02.888Z,3.20
2019-04-19T12:40:03.458Z,2.90
2019-04-19T12:45:04.038Z,4.05
2019-04-19T12:50:06.986Z,4.08
2019-04-19T12:55:03.837Z,3.05
2019-04-19T13:00:03.300Z,3.10
2019-04-19T13:05:02.828Z,4.62
2019-04-19T13:10:03.255Z,3.35
2019-04-19T13:15:03.944Z,2.45
2019-04-19T13:20:10.111Z,3.02
2019-04-19T13:25:03.601Z,2.72
2019-04-19T13:30:12.257Z,2.50
2019-04-19T13:35:03.511Z,3.70
2019-04-19T13:40:04.058Z,4.67
2019-04-19T13:45:14.097Z,2.70
2019-04-19T13:50:14.567Z,6.15
2019-04-19T13:55:03.344Z,3.50
2019-04-19T14:00:06.428Z,3.00
2019-04-19T14:05:02.518Z,3.62
2019-04-19T14:10:03.278Z,3.60
2019-04-19T14:15:02.887Z,2.90
2019-04-19T14:20:03.358Z,3.45
2019-04-19T14:25:03.409Z,2.60
2019-04-19T14:30:03.689Z,3.00
2019-04-19T14:35:03.661Z,2.42
2019-04-19T14:40:03.173Z,2.65
2019-04-19T14:45:03.751Z,5.00
2019-04-19T14:50:03.181Z,0
2019-04-19T14:55:03.515Z,2.50
2019-04-19T15:00:03.137Z,2.50
2019-04-19T15:05:01.853Z,0
2019-04-19T15:10:03.792Z,2.35
2019-04-19T15:15:04.037Z,2.47
2019-04-19T15:20:03.658Z,3.05
2019-04-19T15:25:04.474Z,2.30
2019-04-19T15:30:03.175Z,2.75
2019-04-19T15:35:03.645Z,2.50
2019-04-19T15:40:04.283Z,2.25
2019-04-19T15:45:03.122Z,2.20
2019-04-19T15:50:02.578Z,2.20
2019-04-19T15:55:03.899Z,1.85
2019-04-19T16:00:04.380Z,2.08
2019-04-19T16:05:04.044Z,1.90
2019-04-19T16:10:08.536Z,2.50
2019-04-19T16:15:04.081Z,2.80
2019-04-19T16:20:03.296Z,4.35
2019-04-19T16:25:03.146Z,2.55
2019-04-19T16:30:03.677Z,2.70
2019-04-19T16:35:03.615Z,2.92
2019-04-19T16:40:04.269Z,4.22
2019-04-19T16:45:03.872Z,1.45
2019-04-19T16:50:03.269Z,1.77
2019-04-19T16:55:03.099Z,1.98
2019-04-19T17:00:02.521Z,1.50
2019-04-19T17:05:03.111Z,1.70
2019-04-19T17:10:03.691Z,1.75
2019-04-19T17:15:03.355Z,1.90
2019-04-19T17:20:02.893Z,1.95
2019-04-19T17:25:03.351Z,2.37
2019-04-19T17:30:04.128Z,3.05
2019-04-19T17:35:02.806Z,2.37
2019-04-19T17:40:04.664Z,1.82
2019-04-19T17:45:03.136Z,2.25
2019-04-19T17:50:02.769Z,2.77
2019-04-19T17:55:13.206Z,3.00
2019-04-19T18:00:03.984Z,2.98
2019-04-19T18:05:02.405Z,2.25
2019-04-19T18:10:09.656Z,3.42
2019-04-19T18:15:03.632Z,2.30
2019-04-19T18:20:09.597Z,2.75
2019-04-19T18:25:04.227Z,2.33
2019-04-19T18:30:05.853Z,2.77
2019-04-19T18:35:07.793Z,3.12
2019-04-19T18:40:05.781Z,3.25
2019-04-19T18:45:03.236Z,2.77
2019-04-19T18:50:03.619Z,2.50
2019-04-19T18:55:08.126Z,2.83
2019-04-19T19:00:06.145Z,4.25
2019-04-19T19:05:05.752Z,2.72
2019-04-19T19:10:06.302Z,2.50
2019-04-19T19:15:04.648Z,4.75
2019-04-19T19:20:09.406Z,2.55
2019-04-19T19:25:18.419Z,4.50
2019-04-19T19:30:05.322Z,3.20
2019-04-19T19:35:06.713Z,2.80
2019-04-19T19:40:13.133Z,4.70
2019-04-19T19:45:21.752Z,2.70
2019-04-19T19:50:29.987Z,3.50
2019-04-19T19:55:17.599Z,3.12
2019-04-19T20:00:13.483Z,3.12
2019-04-19T20:05:03.401Z,3.62
2019-04-19T20:10:07.459Z,4.40
2019-04-19T20:15:04.912Z,3.95
2019-04-19T20:20:04.475Z,3.35
2019-04-19T20:25:19.137Z,5.83
2019-04-19T20:30:06.629Z,3.85
2019-04-19T20:35:11.268Z,4.60
2019-04-19T20:40:08.636Z,3.80
2019-04-19T20:45:11.031Z,4.70
2019-04-19T20:50:15.075Z,0
2019-04-19T20:55:24.125Z,4.83
2019-04-19T21:00:04.805Z,5.12
2019-04-19T21:05:04.834Z,5.60
2019-04-19T21:10:06.285Z,0
2019-04-19T21:15:13.690Z,5.85
2019-04-19T21:20:04.511Z,5.53
2019-04-19T21:25:15.291Z,6.03
2019-04-19T21:30:07.498Z,6.60
2019-04-19T21:35:07.411Z,6.97
2019-04-19T21:40:03.826Z,6.78
2019-04-19T21:45:04.739Z,8.08
2019-04-19T21:50:03.074Z,6.20
2019-04-19T21:55:16.150Z,9.35
2019-04-19T22:00:04.199Z,6.05
2019-04-19T22:05:06.236Z,7.37
2019-04-19T22:10:04.088Z,6.90
2019-04-19T22:15:07.124Z,7.25
2019-04-19T22:20:08.249Z,8.78
2019-04-19T22:25:09.834Z,7.95
2019-04-19T22:30:03.292Z,9.73
2019-04-19T22:35:09.463Z,7.67
2019-04-19T22:40:04.754Z,7.70
2019-04-19T22:45:05.912Z,6.03
2019-04-19T22:50:03.188Z,7.10
2019-04-19T22:55:08.971Z,6.72
2019-04-19T23:00:03.522Z,6.50
2019-04-19T23:05:03.146Z,6.75
2019-04-19T23:10:02.924Z,8.18
2019-04-19T23:15:03.654Z,7.92
2019-04-19T23:20:03.391Z,8.18
2019-04-19T23:25:06.533Z,6.30
2019-04-19T23:30:10.151Z,6.45
2019-04-19T23:35:04.228Z,6.35
2019-04-19T23:40:03.262Z,6.95
2019-04-19T23:45:03.792Z,6.78
2019-04-19T23:50:04.069Z,5.53
2019-04-19T23:55:02.578Z,7.15
